KDBQ/DBQ METAR and TAF weather

Enter ICAO airport designator
Station Type Date Time Source
KDBQ METAR 2020/09/25 05:53 UTC NOAA

KDBQ 250553Z AUTO 20009KT 10SM CLR 17/13 A2990 RMK AO2 SLP122 T01670133 10200 20161 402390111 53004


Station Type Date Time Source
KDBQ Decoded METAR 2020/09/25 05:53 UTC NOAA

DUBUQUE REGIONAL AIRPORT, IA, United States (KDBQ) 42-24N 90-42W 326M
Sep 25, 2020 - 01:53 AM EDT / 2020.09.25 0553 UTC
Wind: from the SSW (200 degrees) at 10 MPH (9 KT):0
Visibility: 10 mile(s):0
Sky conditions: clear
Temperature: 62.1 F (16.7 C)
Dew Point: 55.9 F (13.3 C)
Relative Humidity: 80%
Pressure (altimeter): 29.9 in. Hg (1012 hPa)
Pressure tendency: 0.01 inches (0.4 hPa) higher than three hours ago
ob: KDBQ 250553Z AUTO 20009KT 10SM CLR 17/13 A2990 RMK AO2 SLP122 T01670133 10200 20161 402390111 53004
cycle: 6

Station Type Date Time Source
KDBQ TAF 2020/09/25 06:22 UTC NOAA

TAF KDBQ 250520Z 2506/2606 18009KT P6SM SCT060
FM251600 19014G22KT P6SM SCT050
FM252300 18011KT P6SM SCT250

Example: see airport list